• Join FlightAware (Why Join?)
  • Login
  • US Flag 
02:06AM EDT


 

Airport Tracker/Info


-or-


 

Live Flight TrackerFlight Track Log ✈ JST963 ✈ 29-Jun-2013 ✈ YBCS / CNS - YPAD / ADL

Flight Track Log - Related Links

Times and Time Zones

All times are in EDT time to prevent confusion due to time zone crossing. See the JST963 flight status page for this flight to view local times or setup timezone preferences in your user account.

Time Position Orientation Groundspeed Altitude Reporting Facility
EDT Latitude Longitude Course Direction KTS MPH feet Rate Location/Type
04:35PM -16.8932 145.7561 43° Northeast 164 189 900  Level Aus ATC (RADAR)
04:36PM -16.8650 145.7840 31° Northeast 188 216 3,200 1,800 Climbing FlightAware
04:36PM -16.8522 145.7817 31° Northeast 189 217 3,500 960 Climbing Aus ATC (RADAR)
04:36PM -16.8370 145.7800 352° North 221 254 3,700 840 Climbing FlightAware
04:37PM -16.8090 145.7780 356° North 256 295 4,100 1,380 Climbing FlightAware
04:37PM -16.7720 145.7720 351° North 287 330 5,000 2,520 Climbing FlightAware
04:38PM -16.7540 145.7600 327° Northwest 286 329 6,000 3,600 Climbing FlightAware
04:38PM -16.7430 145.7430 304° West 280 322 6,800 2,580 Climbing FlightAware
04:38PM -16.7540 145.6930 304° West 280 322 8,500 2,460 Climbing FlightAware
04:39PM -16.7555 145.6888 304° West 280 322 8,600 1,800 Climbing Aus ATC (RADAR)
04:39PM -16.7660 145.6850 213° Southwest 284 327 8,800 2,160 Climbing FlightAware
04:39PM -16.8160 145.6670 199° South 297 342 10,400 1,740 Climbing FlightAware
04:40PM -16.8590 145.6510 200° South 330 380 10,900 1,560 Climbing FlightAware
04:41PM -16.9290 145.6252 200° South 340 391 12,400 1,800 Climbing Aus ATC (RADAR)
04:41PM -16.9260 145.6270 200° South 350 403 12,300 1,860 Descending FlightAware
04:41PM -16.9950 145.6010 200° South 361 415 13,800 1,980 Climbing FlightAware
04:42PM -17.0490 145.5820 199° South 367 422 14,900 1,860 Climbing FlightAware
04:43PM -17.1270 145.5550 198° South 373 429 16,300 1,680 Climbing FlightAware
04:43PM -17.2000 145.5290 199° South 383 441 17,500 1,680 Climbing FlightAware
04:44PM -17.2680 145.5050 199° South 384 442 18,700 1,380 Climbing FlightAware
04:45PM -17.3380 145.4800 199° South 399 459 19,400 1,080 Climbing FlightAware
04:46PM -17.4340 145.4460 199° South 410 472 20,500 1,260 Climbing FlightAware
04:46PM -17.5210 145.4160 198° South 415 478 21,600 1,260 Climbing FlightAware
04:47PM -17.5970 145.3880 198° South 422 486 22,400 1,200 Climbing FlightAware
04:47PM -17.6021 145.3872 198° South 415 478 22,500 1,320 Climbing Aus ATC (RADAR)
04:48PM -17.6740 145.3610 198° South 422 486 23,300 1,320 Climbing FlightAware
04:48PM -17.7470 145.3350 199° South 419 482 24,300 1,080 Climbing FlightAware
04:49PM -17.8290 145.3060 199° South 427 491 24,900 720 Climbing FlightAware
04:50PM -17.9060 145.2790 198° South 437 503 25,400 720 Climbing FlightAware
04:51PM -17.9820 145.2520 199° South 444 511 25,900 720 Climbing FlightAware
04:51PM -18.0720 145.2200 199° South 450 518 26,500 960 Climbing FlightAware
04:52PM -18.1510 145.1910 199° South 451 519 27,300 1,080 Climbing FlightAware
04:53PM -18.2244 145.1647 199° South 450 518 27,900 900 Climbing Aus ATC (RADAR)
04:53PM -18.2430 145.1580 199° South 454 522 28,000 840 Climbing FlightAware
04:53PM -18.3210 145.1310 198° South 455 524 28,600 840 Climbing FlightAware
04:54PM -18.4070 145.1000 199° South 457 526 29,200 960 Climbing FlightAware
04:55PM -18.4830 145.0730 199° South 453 521 29,900 1,320 Climbing FlightAware
04:55PM -18.4939 145.0680 199° South 452 520 30,100 780 Climbing Aus ATC (RADAR)
04:55PM -18.5690 145.0420 199° South 455 524 30,500 720 Climbing FlightAware
04:56PM -18.6340 145.0177 199° South 456 525 31,000 780 Climbing Aus ATC (RADAR)
04:56PM -18.6610 145.0080 199° South 457 526 31,100 840 Climbing FlightAware
04:57PM -18.7420 144.9790 199° South 456 525 31,800 960 Climbing FlightAware
04:58PM -18.8300 144.9480 198° South 454 522 32,500 780 Climbing FlightAware
04:58PM -18.9044 144.9205 198° South 454 522 32,900 600 Climbing Aus ATC (RADAR)
04:58PM -18.9110 144.9180 198° South 462 532 32,900 660 Level FlightAware
04:59PM -18.9890 144.8900 199° South 463 533 33,400 780 Climbing FlightAware
05:00PM -19.0740 144.8600 198° South 458 527 34,000 540 Climbing FlightAware
05:00PM -19.1469 144.8326 198° South 457 526 34,100  Climbing Aus ATC (RADAR)
05:00PM -19.1610 144.8280 198° South 459 528 34,000  Descending FlightAware
05:01PM -19.2777 144.7853 198° South 458 527 34,100  Climbing Aus ATC (RADAR)
05:01PM -19.2690 144.7890 198° South 461 531 34,000 -180 Descending FlightAware
05:02PM -19.3600 144.7560 198° South 462 532 34,000 120 Level FlightAware
05:02PM -19.3686 144.7525 198° South 458 527 34,100 120 Climbing Aus ATC (RADAR)
05:03PM -19.4388 144.7266 198° South 460 529 34,100 -180 Level Aus ATC (RADAR)
05:03PM -19.4530 144.7220 198° South 461 531 34,000 -180 Descending FlightAware
05:03PM -19.5200 144.6980 199° South 459 528 34,000  Level FlightAware
05:04PM -19.6090 144.6660 199° South 457 526 34,000  Level FlightAware
05:05PM -19.7289 144.6211 199° South 451 519 34,100  Climbing Aus ATC (RADAR)
05:05PM -19.7290 144.6220 199° South 452 520 34,000  Descending FlightAware
05:06PM -19.7982 144.5957 199° South 449 517 34,100  Climbing Aus ATC (RADAR)
05:06PM -19.8170 144.5900 199° South 448 516 34,000 -120 Descending FlightAware
05:06PM -19.8890 144.5640 199° South 447 514 34,000  Level FlightAware
05:07PM -19.9770 144.5310 199° South 445 512 34,000  Level FlightAware
05:08PM -20.0600 144.5010 199° South 444 511 34,000  Level FlightAware
05:09PM -20.1380 144.4720 199° South 442 509 34,000 120 Level FlightAware
05:09PM -20.1494 144.4678 199° South 439 505 34,100 120 Climbing Aus ATC (RADAR)
05:09PM -20.2071 144.4462 199° South 438 504 34,100 -180 Level Aus ATC (RADAR)
05:09PM -20.2290 144.4390 199° South 440 506 34,000 -120 Descending FlightAware
05:10PM -20.3030 144.4120 199° South 439 505 34,000  Level FlightAware
05:11PM -20.3750 144.3860 199° South 439 505 34,000 60 Level FlightAware
05:11PM -20.4766 144.3470 199° South 438 504 34,100  Climbing Aus ATC (RADAR)
05:11PM -20.4730 144.3490 199° South 441 507 34,000  Descending FlightAware
05:12PM -20.5543 144.3188 199° South 438 504 34,100  Climbing Aus ATC (RADAR)
05:12PM -20.5490 144.3210 199° South 442 509 34,000  Descending FlightAware
05:13PM -20.6124 144.2975 199° South 438 504 34,100  Climbing Aus ATC (RADAR)
05:13PM -20.6650 144.2790 199° South 442 509 34,000 -120 Descending FlightAware
05:14PM -20.7370 144.2520 199° South 441 507 34,000  Level FlightAware
05:14PM -20.8190 144.2230 199° South 445 512 34,000 120 Level FlightAware
05:14PM -20.8257 144.2201 199° South 437 503 34,100  Climbing Aus ATC (RADAR)
05:15PM -20.9310 144.1980 199° South 449 517 34,000  Descending FlightAware
05:15PM -20.9380 144.1959 199° South 447 514 34,100  Climbing Aus ATC (RADAR)
05:16PM -21.0210 144.1780 192° South 449 517 34,000  Descending FlightAware
05:17PM -21.1008 144.1595 192° South 443 510 34,100  Climbing Aus ATC (RADAR)
05:17PM -21.1080 144.1580 192° South 450 518 34,000  Descending FlightAware
05:17PM -21.1822 144.1406 192° South 448 516 34,100  Climbing Aus ATC (RADAR)
05:17PM -21.1940 144.1390 192° South 451 519 34,000 -180 Descending FlightAware
05:18PM -21.2780 144.1210 191° South 450 518 34,000  Level FlightAware
05:19PM -21.3680 144.1010 192° South 449 517 34,000  Level FlightAware
05:19PM -21.4430 144.0840 192° South 448 516 34,000 60 Level FlightAware
05:20PM -21.5600 144.0582 192° South 448 516 34,100  Climbing Aus ATC (RADAR)
05:20PM -21.5650 144.0570 192° South 444 511 34,000  Descending FlightAware
05:21PM -21.6284 144.0404 192° South 439 505 34,100  Climbing Aus ATC (RADAR)
05:21PM -21.6510 144.0370 192° South 442 509 34,000 -120 Descending FlightAware
05:22PM -21.7380 144.0180 191° South 442 509 34,000  Level FlightAware
05:23PM -21.8170 144.0000 192° South 442 509 34,000  Level FlightAware
05:23PM -21.9020 143.9810 192° South 443 510 34,000 240 Level FlightAware
05:23PM -21.9091 143.9774 192° South 440 506 34,200 240 Climbing Aus ATC (RADAR)
05:24PM -21.9895 143.9593 192° South 442 509 34,200 -300 Level Aus ATC (RADAR)
05:24PM -21.9890 143.9620 192° South 443 510 34,000 -300 Descending FlightAware
05:25PM -22.0830 143.9400 192° South 444 511 34,000  Level FlightAware
05:26PM -22.1730 143.9200 192° South 444 511 34,000 120 Level FlightAware
05:26PM -22.2608 143.8977 192° South 444 511 34,200  Climbing Aus ATC (RADAR)
05:26PM -22.2620 143.9000 192° South 443 510 34,000  Descending FlightAware
05:27PM -22.3329 143.8837 192° South 447 514 34,200  Climbing Aus ATC (RADAR)
05:27PM -22.3570 143.8790 192° South 443 510 34,000 -240 Descending FlightAware
05:28PM -22.4300 143.8620 192° South 443 510 34,000  Level FlightAware
05:28PM -22.5220 143.8410 192° South 444 511 34,000  Level FlightAware
05:29PM -22.6120 143.8210 192° South 445 512 34,000 240 Level FlightAware
05:29PM -22.6170 143.8230 192° South 448 516 34,200 300 Climbing Aus ATC (RADAR)
05:30PM -22.6874 143.8070 192° South 446 513 34,200 -300 Level Aus ATC (RADAR)
05:30PM -22.7100 143.7990 192° South 444 511 34,000 -240 Descending FlightAware
05:31PM -22.8010 143.7780 192° South 443 510 34,000  Level FlightAware
05:31PM -22.8940 143.7570 192° South 441 507 34,000  Level FlightAware
05:32PM -22.9740 143.7390 192° South 440 506 34,000  Level FlightAware
05:33PM -23.0560 143.7200 192° South 439 505 34,000  Level FlightAware
05:34PM -23.1430 143.7000 192° South 438 504 34,000  Level FlightAware
05:34PM -23.2200 143.6830 191° South 437 503 34,000  Level FlightAware
05:35PM -23.3022 143.6651 194° South 34,000  Level Aus ATC (Calculated)
05:35PM -23.3240 143.6590 192° South 437 503 34,000  Level FlightAware
05:36PM -23.4200 143.6370 192° South 437 503 34,000  Level FlightAware
05:37PM -23.5060 143.6170 192° South 435 501 34,000  Level FlightAware
05:37PM -23.5760 143.6010 192° South 434 499 34,000  Level FlightAware
05:38PM -23.6700 143.5800 192° South 432 497 34,000  Level FlightAware
05:39PM -23.7500 143.5610 192° South 431 496 34,000  Level FlightAware
05:39PM -23.8280 143.5430 192° South 430 495 34,000  Level FlightAware
05:40PM -23.9010 143.5260 192° South 430 495 34,000  Level FlightAware
05:40PM -23.9607 143.5125 192° South 34,000  Level Aus ATC (Calculated)
05:41PM -23.9880 143.5060 192° South 429 494 34,000  Level FlightAware
05:42PM -24.0810 143.4850 192° South 429 494 34,000  Level FlightAware
05:42PM -24.1550 143.4670 193° South 429 494 34,000  Level FlightAware
05:43PM -24.2350 143.4480 192° South 427 491 34,000  Level FlightAware
05:43PM -24.2848 143.3568 120° Southeast 34,000  Level Aus ATC (Calculated)
05:44PM -24.3150 143.4150 192° South 416 479 34,000  Level FlightAware
05:44PM -24.4316 143.2860 65° Northeast 34,000  Level Aus ATC (Calculated)
05:44PM -24.3940 143.3750 205° Southwest 415 478 34,000 600 Level FlightAware
05:45PM -24.4570 143.3440 205° Southwest 415 478 34,400 900 Climbing FlightAware
05:46PM -24.5410 143.3010 205° Southwest 408 470 35,300 840 Climbing FlightAware
05:46PM -24.6090 143.2670 204° Southwest 408 470 35,700 480 Climbing FlightAware
05:47PM -24.7114 143.1505 68° East 34,000 420 Descending Aus ATC (Calculated)
05:47PM -24.6820 143.2290 205° Southwest 406 467 36,000 2,400 Climbing FlightAware
05:48PM -24.7540 143.1930 205° Southwest 407 468 36,000  Level FlightAware
05:49PM -24.8270 143.1550 205° Southwest 410 472 36,000  Level FlightAware
05:49PM -24.8960 143.1210 205° Southwest 408 470 36,000  Level FlightAware
05:49PM -24.9596 143.0298 89° East 34,000  Descending Aus ATC (Calculated)
05:49PM -24.9596 143.0298 89° East 34,000 3,420 Level Aus ATC (Calculated)
05:50PM -24.9590 143.0880 205° Southwest 407 468 36,000 1,380 Climbing FlightAware
05:51PM -25.0450 143.0440 205° Southwest 406 467 36,000  Level FlightAware
05:51PM -25.1090 143.0120 204° Southwest 407 468 36,000  Level FlightAware
05:52PM -25.1850 142.9720 205° Southwest 410 472 36,000  Level FlightAware
05:53PM -25.2620 142.9330 205° Southwest 411 473 36,000  Level FlightAware
05:53PM -25.3220 142.9020 205° Southwest 410 472 36,000 60 Level FlightAware
05:54PM -25.4010 142.8620 205° Southwest 409 471 36,100  Climbing FlightAware
05:54PM -25.4962 142.7669 61° Northeast 34,000 -180 Descending Aus ATC (Calculated)
05:55PM -25.4640 142.8300 205° Southwest 407 468 36,000 1,560 Climbing FlightAware
05:55PM -25.5420 142.7890 205° Southwest 403 464 36,000  Level FlightAware
05:56PM -25.6200 142.7490 205° Southwest 401 461 36,000  Level FlightAware
05:57PM -25.6840 142.7160 205° Southwest 400 460 36,000  Level FlightAware
05:58PM -25.7600 142.6760 205° Southwest 401 461 36,000  Level FlightAware
05:58PM -25.8280 142.6410 205° Southwest 403 464 36,000  Level FlightAware
05:59PM -25.8730 142.6180 205° Southwest 403 464 36,000  Level FlightAware
05:59PM -26.0347 142.5005 39° Northeast 34,000  Descending Aus ATC (Calculated)
05:59PM -25.9470 142.5790 205° Southwest 404 465 36,000 1,680 Climbing FlightAware
06:00PM -26.0400 142.5310 205° Southwest 402 463 36,000  Level FlightAware
06:01PM -26.1150 142.4920 205° Southwest 402 463 36,000  Level FlightAware
06:02PM -26.1800 142.4580 205° Southwest 403 464 36,000  Level FlightAware
06:02PM -26.2530 142.4200 205° Southwest 403 464 36,000  Level FlightAware
06:03PM -26.4643 142.2859 32° Northeast 34,000  Descending Aus ATC (Calculated)
06:03PM -26.3250 142.3820 205° Southwest 404 465 36,000 2,160 Climbing FlightAware
06:04PM -26.3960 142.3450 205° Southwest 404 465 36,000  Level FlightAware
06:04PM -26.5824 142.2267 32° Northeast 34,000  Descending Aus ATC (Calculated)
06:05PM -26.4620 142.3100 205° Southwest 404 465 36,000 2,220 Climbing FlightAware
06:05PM -26.5320 142.2740 205° Southwest 404 465 36,000  Level FlightAware
06:06PM -26.6120 142.2320 205° Southwest 406 467 36,000  Level FlightAware
06:07PM -26.6810 142.1950 206° Southwest 405 466 36,000  Level FlightAware
06:08PM -26.7680 142.1500 205° Southwest 405 466 36,000  Level FlightAware
06:08PM -26.8430 142.1100 205° Southwest 403 464 36,000  Level FlightAware
06:09PM -26.8990 142.0800 206° Southwest 403 464 36,000  Level FlightAware
06:09PM -27.0471 141.9921 32° Northeast 34,000  Descending Aus ATC (Calculated)
06:10PM -26.9930 142.0300 206° Southwest 400 460 36,000 1,680 Climbing FlightAware
06:10PM -27.0530 141.9980 205° Southwest 400 460 36,000  Level FlightAware
06:11PM -27.1340 141.9560 205° Southwest 399 459 36,000  Level FlightAware
06:12PM -27.1700 141.9370 205° Southwest 399 459 36,000  Level FlightAware
06:13PM -27.2380 141.9010 205° Southwest 399 459 36,000  Level FlightAware
06:13PM -27.2900 141.8730 206° Southwest 399 459 36,000  Level FlightAware
06:14PM -27.5683 141.7406 22° Northeast 12,400  Descending Aus ATC (Calculated)
06:14PM -27.3590 141.8370 206° Southwest 399 459 36,000 2,220 Climbing FlightAware
06:17PM -27.6092 141.7233 201° Southwest  Level FlightAware Approximate
06:17PM -27.9414 141.5818 201° Southwest 12,400  Level Aus ATC (Calculated)
06:18PM -27.7138 141.6788 201° Southwest  Level FlightAware Approximate
06:18PM -27.9947 141.5591 201° Southwest 12,400  Level Aus ATC (Calculated)
06:19PM -28.1545 141.4907 201° Southwest 12,400 3,660 Level Aus ATC (Calculated)
06:20PM -28.1454 141.4946 201° Southwest  Level FlightAware Approximate
06:21PM -28.2625 141.4443 201° Southwest  Level FlightAware Approximate
06:21PM -28.3143 141.4220 201° Southwest 12,400  Level Aus ATC (Calculated)
06:23PM -28.4832 141.3492 201° Southwest  Level FlightAware Approximate
06:24PM -28.5877 141.3041 201° Southwest  Level FlightAware Approximate
06:24PM -28.6338 141.2841 21° North 12,400  Level Aus ATC (Calculated)
06:24PM -28.5020 141.3420 201° Southwest 407 468 36,000 6,180 Climbing FlightAware
06:25PM -28.6922 141.2588 201° Southwest  Level FlightAware Approximate
06:27PM -28.8566 141.1874 201° Southwest  Level FlightAware Approximate
06:28PM -28.9610 141.1420 201° Southwest  Level FlightAware Approximate
06:28PM -28.8640 141.1850 201° Southwest 408 470 36,000  Level FlightAware
06:29PM -28.9630 141.1420 201° Southwest 409 471 36,000  Level FlightAware
06:29PM -29.1659 141.0525 21° North 12,400  Descending Aus ATC (Calculated)
06:30PM -29.0660 141.0970 201° Southwest 411 473 36,000 22,080 Climbing FlightAware
06:30PM -29.1430 141.0640 201° Southwest 411 473 36,000  Level FlightAware
06:31PM -29.2160 141.0330 200° South 411 473 36,000  Level FlightAware
06:32PM -29.3380 140.9780 201° Southwest 404 465 36,000  Level FlightAware
06:33PM -29.4110 140.9460 201° Southwest 402 463 36,000  Level FlightAware
06:34PM -29.4870 140.9120 201° Southwest 401 461 36,000  Level FlightAware
06:34PM -29.6975 140.8184 21° North 12,400  Descending Aus ATC (Calculated)
06:34PM -29.5700 140.8750 201° Southwest 398 458 36,000 30,780 Climbing FlightAware
06:35PM -29.6490 140.8400 201° Southwest 393 452 36,000  Level FlightAware
06:36PM -29.7530 140.7940 201° Southwest 392 451 36,000  Level FlightAware
06:37PM -29.9631 140.7005 21° North 12,400  Descending Aus ATC (Calculated)
06:37PM -29.8340 140.7580 201° Southwest 389 448 36,000 28,860 Climbing FlightAware
06:38PM -29.9140 140.7230 201° Southwest 391 450 36,000  Level FlightAware
06:38PM -30.0694 140.6531 22° Northeast 12,400  Descending Aus ATC (Calculated)
06:39PM -29.9960 140.6870 201° Southwest 392 451 36,000 17,220 Climbing FlightAware
06:39PM -30.1756 140.6057 22° Northeast 12,400  Descending Aus ATC (Calculated)
06:39PM -30.0650 140.6560 201° Southwest 390 449 36,000 22,440 Climbing FlightAware
06:39PM -30.2287 140.5819 21° North 12,400  Descending Aus ATC (Calculated)
06:40PM -30.1260 140.6280 201° Southwest 390 449 36,000 17,220 Climbing FlightAware
06:41PM -30.1920 140.5990 201° Southwest 390 449 36,000  Level FlightAware
06:42PM -30.2610 140.5690 201° Southwest 390 449 36,000  Level FlightAware
06:42PM -30.3150 140.5440 202° Southwest 390 449 36,000  Level FlightAware
06:43PM -30.3870 140.5130 200° South 390 449 36,000  Level FlightAware
06:44PM -30.4570 140.4810 202° Southwest 390 449 36,000  Level FlightAware
06:44PM -30.7063 140.3669 22° Northeast 12,400  Descending Aus ATC (Calculated)
06:44PM -30.7593 140.3428 22° Northeast 12,400 42,900 Level Aus ATC (Calculated)
06:44PM -30.5090 140.4580 202° Southwest 390 449 36,000 5,160 Climbing FlightAware
06:45PM -30.8124 140.3188 199° South 12,400  Descending Aus ATC (Calculated)
06:48PM -31.0711 140.2010 201° Southwest  Level FlightAware Approximate
06:49PM -31.1746 140.1538 201° Southwest  Level FlightAware Approximate
06:49PM -30.8940 140.2860 201° Southwest 390 449 36,000  Level FlightAware
06:50PM -31.1634 140.1609 201° Southwest 393 452 36,500 240 Climbing Aus ATC (RADAR)
06:51PM -31.2247 140.1354 200° South 400 460 36,500  Level Aus ATC (RADAR)
06:51PM -31.2834 140.1026 206° Southwest 400 460 36,500  Level Aus ATC (RADAR)
06:52PM -31.3180 140.0890 206° Southwest 36,000  Descending FlightAware
06:52PM -31.3957 140.0501 206° Southwest 402 463 36,500  Climbing Aus ATC (RADAR)
06:52PM -31.3930 140.0550 206° Southwest 402 463 36,000  Descending FlightAware
06:53PM -31.4571 140.0256 206° Southwest 401 461 36,500  Climbing Aus ATC (RADAR)
06:53PM -31.4520 140.0280 206° Southwest 402 463 36,000 -660 Descending FlightAware
06:54PM -31.5050 140.0040 201° Southwest 402 463 36,000  Level FlightAware
06:55PM -31.5760 139.9720 201° Southwest 402 463 36,000 300 Level FlightAware
06:55PM -31.7076 139.9049 201° Southwest 405 466 36,500 300 Climbing Aus ATC (RADAR)
06:56PM -31.7961 139.8668 200° South 408 470 36,500  Level Aus ATC (RADAR)
06:57PM -31.8748 139.8288 202° Southwest 408 470 36,500  Level Aus ATC (RADAR)
06:58PM -31.9360 139.7993 202° Southwest 407 468 36,500 -420 Level Aus ATC (RADAR)
06:58PM -31.9970 139.7750 200° South 405 466 36,000  Descending FlightAware
06:58PM -32.0066 139.7693 200° South 407 468 36,500 600 Climbing Aus ATC (RADAR)
06:59PM -32.0672 139.7416 200° South 403 464 36,400 -720 Descending Aus ATC (RADAR)
06:59PM -32.0790 139.7360 200° South 397 457 36,000 60 Descending FlightAware
07:00PM -32.1806 139.6872 200° South 406 467 36,500 300 Climbing Aus ATC (RADAR)
07:01PM -32.2509 139.6559 201° Southwest 406 467 36,500 -600 Level Aus ATC (RADAR)
07:01PM -32.2760 139.6440 201° Southwest 398 458 36,000  Descending FlightAware
07:02PM -32.3726 139.5969 201° Southwest 407 468 36,500  Climbing Aus ATC (RADAR)
07:02PM -32.4140 139.5790 201° Southwest 399 459 36,000  Descending FlightAware
07:03PM -32.4686 139.5509 201° Southwest 408 470 36,500 420 Climbing Aus ATC (RADAR)
07:03PM -32.5393 139.5208 200° South 406 467 36,500 -420 Level Aus ATC (RADAR)
07:04PM -32.5990 139.4920 203° Southwest 402 463 36,000  Descending FlightAware
07:04PM -32.5999 139.4902 203° Southwest 410 472 36,500 840 Climbing Aus ATC (RADAR)
07:04PM -32.6616 139.4608 203° Southwest 412 474 36,500 -780 Level Aus ATC (RADAR)
07:04PM -32.6680 139.4590 203° Southwest 404 465 36,000  Descending FlightAware
07:05PM -32.7233 139.4302 203° Southwest 414 476 36,500  Climbing Aus ATC (RADAR)
07:05PM -32.7490 139.4210 203° Southwest 413 475 36,000 -600 Descending FlightAware
07:06PM -32.8200 139.3870 202° Southwest 413 475 36,000 360 Level FlightAware
07:06PM -32.8836 139.3561 202° Southwest 414 476 36,500  Climbing Aus ATC (RADAR)
07:07PM -32.8920 139.3530 202° Southwest 413 475 36,000 -720 Descending FlightAware
07:07PM -32.9620 139.3200 202° Southwest 410 472 36,000  Level FlightAware
07:08PM -33.0480 139.2920 195° South 413 475 36,000 300 Level FlightAware
07:09PM -33.1238 139.2675 195° South 423 487 36,500 -180 Climbing Aus ATC (RADAR)
07:09PM -33.1320 139.2650 195° South 420 483 35,900 -1,920 Descending FlightAware
07:09PM -33.1893 139.2453 195° South 422 486 35,400 -2,280 Descending Aus ATC (RADAR)
07:09PM -33.2050 139.2410 195° South 415 478 34,400 -2,700 Descending FlightAware
07:10PM -33.3225 139.2021 195° South 426 490 32,300 -2,520 Descending Aus ATC (RADAR)
07:10PM -33.3330 139.1990 195° South 419 482 31,700 -2,640 Descending FlightAware
07:11PM -33.4157 139.1710 195° South 422 486 30,100 -2,460 Descending Aus ATC (RADAR)
07:11PM -33.4150 139.1730 195° South 419 482 29,800 -1,200 Descending FlightAware
07:12PM -33.4789 139.1511 195° South 405 466 29,400 -1,680 Descending Aus ATC (RADAR)
07:12PM -33.4860 139.1490 195° South 400 460 28,700 -2,460 Descending FlightAware
07:13PM -33.5670 139.1230 195° South 385 443 27,300 -1,980 Descending FlightAware
07:13PM -33.6320 139.1010 196° South 373 429 25,900 -1,980 Descending FlightAware
07:14PM -33.7251 139.0700 196° South 375 432 24,300 -2,400 Descending Aus ATC (RADAR)
07:14PM -33.7280 139.0700 196° South 370 426 23,700 -2,280 Descending FlightAware
07:15PM -33.7989 139.0456 196° South 368 423 22,600 -2,100 Descending Aus ATC (RADAR)
07:15PM -33.8230 139.0380 196° South 362 417 21,600 -2,280 Descending FlightAware
07:16PM -33.8870 139.0170 195° South 353 406 20,400 -1,920 Descending FlightAware
07:17PM -33.9550 138.9940 196° South 345 397 18,900 -1,680 Descending FlightAware
07:17PM -34.0096 138.9758 196° South 340 391 18,300 -1,980 Descending Aus ATC (RADAR)
07:17PM -34.0190 138.9730 196° South 336 387 17,600 -2,640 Descending FlightAware
07:18PM -34.0810 138.9530 195° South 333 383 16,200 -2,040 Descending FlightAware
07:19PM -34.1420 138.9320 196° South 316 364 14,800 -1,920 Descending FlightAware
07:19PM -34.2080 138.9100 195° South 317 365 13,400 -1,620 Descending FlightAware
07:20PM -34.2566 138.8938 195° South 316 364 12,700 -2,100 Descending Aus ATC (RADAR)
07:20PM -34.2630 138.8920 195° South 317 365 12,000 -2,520 Descending FlightAware
07:21PM -34.3260 138.8710 195° South 301 346 10,600 -1,140 Descending FlightAware
07:21PM -34.3735 138.8544 195° South 300 345 10,600 -900 Level Aus ATC (RADAR)
07:22PM -34.3810 138.8520 195° South 284 327 10,000 -1,800 Descending FlightAware
07:22PM -34.4110 138.8420 195° South 271 312 9,700 -1,200 Descending FlightAware
07:22PM -34.4460 138.8300 196° South 266 306 8,900 -1,500 Descending FlightAware
07:23PM -34.4820 138.8180 195° South 255 293 8,200 -1,560 Descending FlightAware
07:23PM -34.5110 138.8080 196° South 255 293 7,500 -1,560 Descending FlightAware
07:24PM -34.5460 138.7960 196° South 248 285 6,800 -1,380 Descending FlightAware
07:24PM -34.5570 138.7920 197° South 253 291 6,600 -1,380 Descending FlightAware
07:24PM -34.5850 138.7830 195° South 253 291 6,000 -1,560 Descending FlightAware
07:25PM -34.6160 138.7730 195° South 254 292 5,200 -1,440 Descending FlightAware
07:25PM -34.6540 138.7600 195° South 237 273 4,600 -420 Descending FlightAware
07:26PM -34.6587 138.7580 195° South 250 288 5,000 -480 Climbing Aus ATC (RADAR)
07:26PM -34.6810 138.7510 195° South 219 252 4,400 -420 Descending FlightAware
07:26PM -34.6896 138.7475 195° South 233 268 4,800 -600 Climbing Aus ATC (RADAR)
07:26PM -34.7110 138.7410 195° South 203 234 4,100 -1,200 Descending FlightAware
07:27PM -34.7370 138.7320 196° South 199 229 3,800 -600 Descending FlightAware
07:27PM -34.7460 138.7290 195° South 187 215 3,700 -780 Descending FlightAware
07:28PM -34.7720 138.7200 196° South 185 213 3,300 -720 Descending FlightAware
07:28PM -34.7960 138.7110 197° South 187 215 3,000 -660 Descending FlightAware
07:29PM -34.8190 138.7040 194° South 170 196 2,700 -540 Descending FlightAware
07:29PM -34.8340 138.6960 204° Southwest 171 197 2,600 -240 Descending FlightAware
07:29PM -34.8390 138.6890 229° Southwest 166 191 2,600 -480 Level FlightAware
07:30PM -34.8530 138.6700 228° Southwest 152 175 2,300 -780 Descending FlightAware
07:30PM -34.8650 138.6540 228° Southwest 149 171 1,900 -900 Descending FlightAware
07:30PM -34.8720 138.6440 230° Southwest 142 163 1,700 -780 Descending FlightAware
07:31PM -34.8820 138.6290 231° Southwest 132 152 1,400 -840 Descending FlightAware
07:31PM -34.8970 138.6070 230° Southwest 129 148 900 -780 Descending FlightAware
07:32PM -34.9040 138.5960 232° Southwest 134 154 700 -660 Descending FlightAware
07:32PM -34.9190 138.5750 229° Southwest 134 154 300 -720 Descending FlightAware
07:33PM -34.9290 138.5610 229° Southwest 136 157 -720 Descending FlightAware
07:33PM -34.9390 138.5460 231° Southwest 137 158  Level FlightAware
07:34PM -34.9520 138.5270 230° Southwest 46 53  Level FlightAware
07:34PM -34.9520 138.5260 270° West 15 17  Level FlightAware